sensor_id;sensor_type;location;lat;lon;timestamp;pressure;altitude;pressure_sealevel;temperature;humidity
55410;BME280;41279;43.546;16.426;2023-03-23T00:01:53;100341.50;;;-146.77;100.00
55410;BME280;41279;43.546;16.426;2023-03-23T00:04:20;98526.47;;;-146.77;100.00
55410;BME280;41279;43.546;16.426;2023-03-23T00:06:46;97230.53;;;-146.77;100.00
55410;BME280;41279;43.546;16.426;2023-03-23T00:09:13;93604.13;;;-146.77;100.00
55410;BME280;41279;43.546;16.426;2023-03-23T00:11:40;92050.94;;;-146.77;100.00
55410;BME280;41279;43.546;16.426;2023-03-23T00:14:06;91015.81;;;-146.77;100.00
55410;BME280;41279;43.546;16.426;2023-03-23T00:16:39;91274.56;;;-146.77;100.00
55410;BME280;41279;43.546;16.426;2023-03-23T00:19:08;89463.63;;;-146.77;100.00
55410;BME280;41279;43.546;16.426;2023-03-23T00:21:38;86102.59;;;-146.77;100.00
55410;BME280;41279;43.546;16.426;2023-03-23T00:24:15;86102.59;;;-146.77;100.00
55410;BME280;41279;43.546;16.426;2023-03-23T00:26:43;86619.50;;;-146.77;100.00
55410;BME280;41279;43.546;16.426;2023-03-23T00:29:20;88687.75;;;-146.77;100.00
55410;BME280;41279;43.546;16.426;2023-03-23T00:31:49;91274.56;;;-146.77;100.00
55410;BME280;41279;43.546;16.426;2023-03-23T00:34:20;91792.13;;;-146.77;100.00
55410;BME280;41279;43.546;16.426;2023-03-23T00:36:47;89722.28;;;-146.77;100.00
55410;BME280;41279;43.546;16.426;2023-03-23T00:39:13;91792.13;;;-146.77;100.00
55410;BME280;41279;43.546;16.426;2023-03-23T00:41:44;89463.63;;;-146.77;100.00
55410;BME280;41279;43.546;16.426;2023-03-23T00:44:11;87653.50;;;-146.77;100.00
55410;BME280;41279;43.546;16.426;2023-03-23T00:46:46;87912.03;;;-146.77;100.00
55410;BME280;41279;43.546;16.426;2023-03-23T00:49:15;89205.00;;;-146.77;100.00
55410;BME280;41279;43.546;16.426;2023-03-23T00:51:42;103973.94;;;-146.77;100.00
55410;BME280;41279;43.546;16.426;2023-03-23T00:54:08;113069.31;;;-146.77;100.00
55410;BME280;41279;43.546;16.426;2023-03-23T00:56:34;116713.16;;;-146.77;100.00
55410;BME280;41279;43.546;16.426;2023-03-23T00:59:00;117233.97;;;-146.77;100.00
55410;BME280;41279;43.546;16.426;2023-03-23T01:01:26;117236.00;;;-146.77;100.00
55410;BME280;41279;43.546;16.426;2023-03-23T01:03:51;117236.00;;;-146.77;100.00
55410;BME280;41279;43.546;16.426;2023-03-23T01:06:28;117236.00;;;-146.77;100.00
55410;BME280;41279;43.546;16.426;2023-03-23T01:08:57;117236.00;;;-146.77;100.00
55410;BME280;41279;43.546;16.426;2023-03-23T01:11:23;117236.00;;;-146.77;100.00
55410;BME280;41279;43.546;16.426;2023-03-23T01:13:49;117236.00;;;-146.77;100.00
55410;BME280;41279;43.546;16.426;2023-03-23T01:16:14;117236.00;;;-146.77;100.00
55410;BME280;41279;43.546;16.426;2023-03-23T01:18:40;117236.00;;;-146.77;100.00
55410;BME280;41279;43.546;16.426;2023-03-23T01:21:11;117233.97;;;-146.77;100.00
55410;BME280;41279;43.546;16.426;2023-03-23T01:23:38;117233.97;;;-146.77;100.00
55410;BME280;41279;43.546;16.426;2023-03-23T01:26:10;116973.56;;;-146.77;100.00
55410;BME280;41279;43.546;16.426;2023-03-23T01:28:36;116713.16;;;-146.77;100.00
55410;BME280;41279;43.546;16.426;2023-03-23T01:31:03;116713.16;;;-146.77;100.00
55410;BME280;41279;43.546;16.426;2023-03-23T01:33:29;116713.16;;;-146.77;100.00
55410;BME280;41279;43.546;16.426;2023-03-23T01:35:56;116973.56;;;-146.77;100.00
55410;BME280;41279;43.546;16.426;2023-03-23T01:38:21;117236.00;;;-146.77;100.00
55410;BME280;41279;43.546;16.426;2023-03-23T01:40:46;117233.97;;;-146.77;100.00
55410;BME280;41279;43.546;16.426;2023-03-23T01:43:14;117236.00;;;-146.77;100.00
55410;BME280;41279;43.546;16.426;2023-03-23T01:45:40;117236.00;;;-146.77;100.00
55410;BME280;41279;43.546;16.426;2023-03-23T01:51:03;117236.00;;;-146.77;100.00
55410;BME280;41279;43.546;16.426;2023-03-23T01:53:34;117236.00;;;-146.77;100.00
55410;BME280;41279;43.546;16.426;2023-03-23T01:56:02;117236.00;;;-146.77;100.00
55410;BME280;41279;43.546;16.426;2023-03-23T01:58:30;117233.97;;;-146.77;100.00
55410;BME280;41279;43.546;16.426;2023-03-23T02:00:58;117233.97;;;-146.77;100.00
55410;BME280;41279;43.546;16.426;2023-03-23T02:03:28;116973.56;;;-146.77;100.00
55410;BME280;41279;43.546;16.426;2023-03-23T02:05:54;116713.16;;;-146.77;100.00
55410;BME280;41279;43.546;16.426;2023-03-23T02:08:24;116973.56;;;-146.77;100.00
55410;BME280;41279;43.546;16.426;2023-03-23T02:10:52;116713.16;;;-146.77;100.00
55410;BME280;41279;43.546;16.426;2023-03-23T02:13:17;116973.56;;;-146.77;100.00
55410;BME280;41279;43.546;16.426;2023-03-23T02:18:49;117236.00;;;-146.77;100.00
55410;BME280;41279;43.546;16.426;2023-03-23T02:27:05;117236.00;;;-146.77;100.00
55410;BME280;41279;43.546;16.426;2023-03-23T02:29:55;117233.97;;;-146.77;100.00
55410;BME280;41279;43.546;16.426;2023-03-23T02:36:12;117233.97;;;-146.77;100.00
55410;BME280;41279;43.546;16.426;2023-03-23T02:38:49;116973.56;;;-146.77;100.00
55410;BME280;41279;43.546;16.426;2023-03-23T02:41:20;116713.16;;;-146.77;100.00
55410;BME280;41279;43.546;16.426;2023-03-23T02:43:48;116973.56;;;-146.77;100.00
55410;BME280;41279;43.546;16.426;2023-03-23T02:46:15;117233.97;;;-146.77;100.00
55410;BME280;41279;43.546;16.426;2023-03-23T02:48:42;117236.00;;;-146.77;100.00
55410;BME280;41279;43.546;16.426;2023-03-23T02:51:10;117233.97;;;-146.77;100.00
55410;BME280;41279;43.546;16.426;2023-03-23T02:53:40;117233.97;;;-146.77;100.00
55410;BME280;41279;43.546;16.426;2023-03-23T02:56:08;116973.56;;;-146.77;100.00
55410;BME280;41279;43.546;16.426;2023-03-23T02:58:35;116973.56;;;-146.77;100.00
55410;BME280;41279;43.546;16.426;2023-03-23T03:03:54;117233.97;;;-146.77;100.00
55410;BME280;41279;43.546;16.426;2023-03-23T03:09:44;117236.00;;;-146.77;100.00
55410;BME280;41279;43.546;16.426;2023-03-23T03:12:27;117236.00;;;-146.77;100.00
55410;BME280;41279;43.546;16.426;2023-03-23T03:15:08;117236.00;;;-146.77;100.00
55410;BME280;41279;43.546;16.426;2023-03-23T03:17:42;117236.00;;;-146.77;100.00
55410;BME280;41279;43.546;16.426;2023-03-23T03:20:11;117236.00;;;-146.77;100.00
55410;BME280;41279;43.546;16.426;2023-03-23T03:22:41;116973.56;;;-146.77;100.00
55410;BME280;41279;43.546;16.426;2023-03-23T03:25:09;116452.78;;;-146.77;100.00
55410;BME280;41279;43.546;16.426;2023-03-23T03:27:38;116192.41;;;-146.77;100.00
55410;BME280;41279;43.546;16.426;2023-03-23T03:30:09;116192.41;;;-146.77;100.00
55410;BME280;41279;43.546;16.426;2023-03-23T03:32:43;116452.78;;;-146.77;100.00
55410;BME280;41279;43.546;16.426;2023-03-23T03:35:11;116973.56;;;-146.77;100.00
55410;BME280;41279;43.546;16.426;2023-03-23T03:37:38;117236.00;;;-146.77;100.00
55410;BME280;41279;43.546;16.426;2023-03-23T03:40:17;117236.00;;;-146.77;100.00
55410;BME280;41279;43.546;16.426;2023-03-23T03:42:44;117236.00;;;-146.77;100.00
55410;BME280;41279;43.546;16.426;2023-03-23T03:45:16;117236.00;;;-146.77;100.00
55410;BME280;41279;43.546;16.426;2023-03-23T03:47:42;117236.00;;;-146.77;100.00
55410;BME280;41279;43.546;16.426;2023-03-23T03:50:08;117236.00;;;-146.77;100.00
55410;BME280;41279;43.546;16.426;2023-03-23T03:52:34;117236.00;;;-146.77;100.00
55410;BME280;41279;43.546;16.426;2023-03-23T03:54:59;117236.00;;;-146.77;100.00
55410;BME280;41279;43.546;16.426;2023-03-23T03:57:25;117236.00;;;-146.77;100.00
55410;BME280;41279;43.546;16.426;2023-03-23T03:59:51;117233.97;;;-146.77;100.00
55410;BME280;41279;43.546;16.426;2023-03-23T04:02:17;117233.97;;;-146.77;100.00
55410;BME280;41279;43.546;16.426;2023-03-23T04:04:46;117236.00;;;-146.77;100.00
55410;BME280;41279;43.546;16.426;2023-03-23T04:07:12;117236.00;;;-146.77;100.00
55410;BME280;41279;43.546;16.426;2023-03-23T04:09:42;116973.56;;;-146.77;100.00
55410;BME280;41279;43.546;16.426;2023-03-23T04:12:08;116452.78;;;-146.77;100.00
55410;BME280;41279;43.546;16.426;2023-03-23T04:14:34;116973.56;;;-146.77;100.00
55410;BME280;41279;43.546;16.426;2023-03-23T04:16:59;117233.97;;;-146.77;100.00
55410;BME280;41279;43.546;16.426;2023-03-23T04:19:25;116973.56;;;-146.77;100.00
55410;BME280;41279;43.546;16.426;2023-03-23T04:21:54;116713.16;;;-146.77;100.00
55410;BME280;41279;43.546;16.426;2023-03-23T04:24:21;116192.41;;;-146.77;100.00
55410;BME280;41279;43.546;16.426;2023-03-23T04:26:48;115932.06;;;-146.77;100.00
55410;BME280;41279;43.546;16.426;2023-03-23T04:29:14;115671.72;;;-146.77;100.00
55410;BME280;41279;43.546;16.426;2023-03-23T04:31:40;115671.72;;;-146.77;100.00
55410;BME280;41279;43.546;16.426;2023-03-23T04:34:10;115151.13;;;-146.77;100.00
55410;BME280;41279;43.546;16.426;2023-03-23T04:36:38;114890.84;;;-146.77;100.00
55410;BME280;41279;43.546;16.426;2023-03-23T04:39:04;114890.84;;;-146.77;100.00
55410;BME280;41279;43.546;16.426;2023-03-23T04:41:35;114630.56;;;-146.77;100.00
55410;BME280;41279;43.546;16.426;2023-03-23T04:44:01;115932.06;;;-146.77;100.00
55410;BME280;41279;43.546;16.426;2023-03-23T04:46:29;117236.00;;;-146.77;100.00
55410;BME280;41279;43.546;16.426;2023-03-23T04:48:55;117236.00;;;-146.77;100.00
55410;BME280;41279;43.546;16.426;2023-03-23T04:51:24;117236.00;;;-146.77;100.00
55410;BME280;41279;43.546;16.426;2023-03-23T04:53:49;117236.00;;;-146.77;100.00
55410;BME280;41279;43.546;16.426;2023-03-23T04:56:15;117236.00;;;-146.77;100.00
55410;BME280;41279;43.546;16.426;2023-03-23T04:58:41;117236.00;;;-146.77;100.00
55410;BME280;41279;43.546;16.426;2023-03-23T05:01:08;117236.00;;;-146.77;100.00
55410;BME280;41279;43.546;16.426;2023-03-23T05:03:42;117236.00;;;-146.77;100.00
55410;BME280;41279;43.546;16.426;2023-03-23T05:06:09;117236.00;;;-146.77;100.00
55410;BME280;41279;43.546;16.426;2023-03-23T05:08:34;117236.00;;;-146.77;100.00
55410;BME280;41279;43.546;16.426;2023-03-23T05:11:04;117236.00;;;-146.77;100.00
55410;BME280;41279;43.546;16.426;2023-03-23T05:13:36;117236.00;;;-146.77;100.00
55410;BME280;41279;43.546;16.426;2023-03-23T05:16:05;117236.00;;;-146.77;100.00
55410;BME280;41279;43.546;16.426;2023-03-23T05:18:31;117236.00;;;-146.77;100.00
55410;BME280;41279;43.546;16.426;2023-03-23T05:21:04;117236.00;;;-146.77;100.00
55410;BME280;41279;43.546;16.426;2023-03-23T05:23:29;117236.00;;;-146.77;100.00
55410;BME280;41279;43.546;16.426;2023-03-23T05:25:57;117236.00;;;-146.77;100.00
55410;BME280;41279;43.546;16.426;2023-03-23T05:28:28;117233.97;;;-146.77;100.00
55410;BME280;41279;43.546;16.426;2023-03-23T05:30:56;114110.09;;;-146.77;100.00
55410;BME280;41279;43.546;16.426;2023-03-23T05:33:21;108908.91;;;-146.77;100.00
55410;BME280;41279;43.546;16.426;2023-03-23T05:35:47;101897.88;;;-146.77;100.00
55410;BME280;41279;43.546;16.426;2023-03-23T05:38:13;96194.09;;;-146.77;100.00
55410;BME280;41279;43.546;16.426;2023-03-23T05:40:40;85844.19;;;-146.77;100.00
55410;BME280;41279;43.546;16.426;2023-03-23T05:43:07;77841.25;;;-146.77;100.00
55410;BME280;41279;43.546;16.426;2023-03-23T05:45:32;65796.44;;;-146.77;100.00
55410;BME280;41279;43.546;16.426;2023-03-23T05:47:59;58497.16;;;-146.77;100.00
55410;BME280;41279;43.546;16.426;2023-03-23T05:50:25;59868.91;;;-146.77;100.00
55410;BME280;41279;43.546;16.426;2023-03-23T05:52:51;76036.34;;;-146.77;100.00
55410;BME280;41279;43.546;16.426;2023-03-23T05:55:16;59285.25;;;-146.77;100.00
55410;BME280;41279;43.546;16.426;2023-03-23T05:57:43;67980.63;;;-146.77;100.00
55410;BME280;41279;43.546;16.426;2023-03-23T06:00:09;58693.69;;;-146.77;100.00
55410;BME280;41279;43.546;16.426;2023-03-23T06:02:45;59223.09;;;-146.77;100.00
55410;BME280;41279;43.546;16.426;2023-03-23T06:05:11;65738.19;;;-146.77;100.00
55410;BME280;41279;43.546;16.426;2023-03-23T06:07:37;74747.63;;;-146.77;100.00
55410;BME280;41279;43.546;16.426;2023-03-23T06:10:06;65796.44;;;-146.77;100.00
55410;BME280;41279;43.546;16.426;2023-03-23T06:12:32;63021.28;;;-146.77;100.00
55410;BME280;41279;43.546;16.426;2023-03-23T06:14:58;61849.13;;;-146.77;100.00
55410;BME280;41279;43.546;16.426;2023-03-23T06:17:24;61973.53;;;-146.77;100.00
55410;BME280;41279;43.546;16.426;2023-03-23T06:19:49;57314.31;;;-146.77;100.00
55410;BME280;41279;43.546;16.426;2023-03-23T06:22:16;57478.69;;;-146.77;100.00
55410;BME280;41279;43.546;16.426;2023-03-23T06:24:42;55638.91;;;-146.77;100.00
55410;BME280;41279;43.546;16.426;2023-03-23T06:27:07;54611.16;;;-146.77;100.00
55410;BME280;41279;43.546;16.426;2023-03-23T06:29:34;54222.56;;;-146.77;100.00
55410;BME280;41279;43.546;16.426;2023-03-23T06:32:01;53998.25;;;-146.77;100.00
55410;BME280;41279;43.546;16.426;2023-03-23T06:34:27;53711.84;;;-146.77;100.00
55410;BME280;41279;43.546;16.426;2023-03-23T06:36:53;53519.59;;;-146.77;100.00
55410;BME280;41279;43.546;16.426;2023-03-23T06:39:18;53235.25;;;-146.77;100.00
55410;BME280;41279;43.546;16.426;2023-03-23T06:41:44;52966.91;;;-146.77;100.00
55410;BME280;41279;43.546;16.426;2023-03-23T06:44:10;52864.81;;;-146.77;100.00
55410;BME280;41279;43.546;16.426;2023-03-23T06:46:39;52812.75;;;-146.77;100.00
55410;BME280;41279;43.546;16.426;2023-03-23T06:49:05;52690.59;;;-146.77;100.00
55410;BME280;41279;43.546;16.426;2023-03-23T06:51:30;52686.59;;;-146.77;100.00
55410;BME280;41279;43.546;16.426;2023-03-23T06:53:56;52782.72;;;-146.77;100.00
55410;BME280;41279;43.546;16.426;2023-03-23T06:56:23;52762.69;;;-146.77;100.00
55410;BME280;41279;43.546;16.426;2023-03-23T06:58:56;52742.66;;;-146.77;100.00
55410;BME280;41279;43.546;16.426;2023-03-23T07:01:21;52732.66;;;-146.77;100.00
55410;BME280;41279;43.546;16.426;2023-03-23T07:03:47;52710.63;;;-146.77;100.00
55410;BME280;41279;43.546;16.426;2023-03-23T07:06:14;52804.72;;;-146.77;100.00
55410;BME280;41279;43.546;16.426;2023-03-23T07:08:40;52724.66;;;-146.77;100.00
55410;BME280;41279;43.546;16.426;2023-03-23T07:11:06;52678.59;;;-146.77;97.98
55410;BME280;41279;43.546;16.426;2023-03-23T07:13:38;52698.63;;;-146.77;100.00
55410;BME280;41279;43.546;16.426;2023-03-23T07:16:10;52712.63;;;-146.77;96.99
55410;BME280;41279;43.546;16.426;2023-03-23T07:18:36;52714.63;;;-146.77;100.00
55410;BME280;41279;43.546;16.426;2023-03-23T07:21:02;52790.72;;;-146.77;100.00
55410;BME280;41279;43.546;16.426;2023-03-23T07:23:29;52742.66;;;-146.77;100.00
55410;BME280;41279;43.546;16.426;2023-03-23T07:25:55;53061.03;;;-146.77;100.00
55410;BME280;41279;43.546;16.426;2023-03-23T07:28:21;52996.94;;;-146.77;100.00
55410;BME280;41279;43.546;16.426;2023-03-23T07:30:46;53057.03;;;-146.77;100.00
55410;BME280;41279;43.546;16.426;2023-03-23T07:33:12;53139.13;;;-146.77;100.00
55410;BME280;41279;43.546;16.426;2023-03-23T07:35:38;53229.22;;;-146.77;100.00
55410;BME280;41279;43.546;16.426;2023-03-23T07:38:05;53273.28;;;-146.77;100.00
55410;BME280;41279;43.546;16.426;2023-03-23T07:40:31;53105.09;;;-146.77;100.00
55410;BME280;41279;43.546;16.426;2023-03-23T07:42:59;53022.97;;;-146.77;100.00
55410;BME280;41279;43.546;16.426;2023-03-23T07:45:25;53253.25;;;-146.77;100.00
55410;BME280;41279;43.546;16.426;2023-03-23T07:47:51;53239.25;;;-146.77;100.00
55410;BME280;41279;43.546;16.426;2023-03-23T07:50:18;53006.97;;;-146.77;100.00
55410;BME280;41279;43.546;16.426;2023-03-23T07:52:47;53493.56;;;-146.77;100.00
55410;BME280;41279;43.546;16.426;2023-03-23T07:55:13;53315.34;;;-146.77;100.00
55410;BME280;41279;43.546;16.426;2023-03-23T07:57:46;53347.38;;;-146.77;100.00
55410;BME280;41279;43.546;16.426;2023-03-23T08:00:14;53063.03;;;-146.77;100.00
55410;BME280;41279;43.546;16.426;2023-03-23T08:02:48;53071.03;;;-146.77;100.00
55410;BME280;41279;43.546;16.426;2023-03-23T08:05:16;53309.34;;;-146.77;100.00
55410;BME280;41279;43.546;16.426;2023-03-23T08:07:43;53745.91;;;-146.77;100.00
55410;BME280;41279;43.546;16.426;2023-03-23T08:10:10;53575.66;;;-146.77;100.00
55410;BME280;41279;43.546;16.426;2023-03-23T08:12:39;53291.31;;;-146.77;100.00
55410;BME280;41279;43.546;16.426;2023-03-23T08:15:06;53511.59;;;-146.77;100.00
55410;BME280;41279;43.546;16.426;2023-03-23T08:17:33;54364.78;;;-146.77;100.00
55410;BME280;41279;43.546;16.426;2023-03-23T08:19:59;54138.44;;;-146.77;100.00
55410;BME280;41279;43.546;16.426;2023-03-23T08:22:25;55496.66;;;-146.77;100.00
55410;BME280;41279;43.546;16.426;2023-03-23T08:24:51;56703.00;;;-146.77;100.00
55410;BME280;41279;43.546;16.426;2023-03-23T08:27:16;58192.41;;;-146.77;100.00
55410;BME280;41279;43.546;16.426;2023-03-23T08:29:44;55721.06;;;-146.77;100.00
55410;BME280;41279;43.546;16.426;2023-03-23T08:32:11;54088.38;;;-146.77;100.00
55410;BME280;41279;43.546;16.426;2023-03-23T08:34:37;54456.91;;;-146.77;100.00
55410;BME280;41279;43.546;16.426;2023-03-23T08:37:02;54364.78;;;-146.77;100.00
55410;BME280;41279;43.546;16.426;2023-03-23T08:39:28;54847.53;;;-146.77;100.00
55410;BME280;41279;43.546;16.426;2023-03-23T08:41:56;54480.97;;;-146.77;100.00
55410;BME280;41279;43.546;16.426;2023-03-23T08:44:21;56761.13;;;-146.77;100.00
55410;BME280;41279;43.546;16.426;2023-03-23T08:46:46;56482.53;;;-146.77;100.00
55410;BME280;41279;43.546;16.426;2023-03-23T08:49:12;55482.63;;;-146.77;100.00
55410;BME280;41279;43.546;16.426;2023-03-23T08:51:37;55506.66;;;-146.77;100.00
55410;BME280;41279;43.546;16.426;2023-03-23T08:54:03;54923.66;;;-146.77;100.00
55410;BME280;41279;43.546;16.426;2023-03-23T08:56:29;54861.56;;;-146.77;100.00
55410;BME280;41279;43.546;16.426;2023-03-23T08:58:54;54032.28;;;-146.77;100.00
55410;BME280;41279;43.546;16.426;2023-03-23T09:01:20;54232.59;;;-146.77;100.00
55410;BME280;41279;43.546;16.426;2023-03-23T09:03:45;54416.88;;;-146.77;100.00
55410;BME280;41279;43.546;16.426;2023-03-23T09:06:11;55654.94;;;-146.77;100.00
55410;BME280;41279;43.546;16.426;2023-03-23T09:08:38;59110.78;;;-146.77;100.00
55410;BME280;41279;43.546;16.426;2023-03-23T09:11:06;60819.75;;;-146.77;100.00
55410;BME280;41279;43.546;16.426;2023-03-23T09:13:34;61058.53;;;-146.77;100.00
55410;BME280;41279;43.546;16.426;2023-03-23T09:16:00;52958.91;;;-146.77;100.00
55410;BME280;41279;43.546;16.426;2023-03-23T09:18:26;52758.69;;;-146.77;100.00
55410;BME280;41279;43.546;16.426;2023-03-23T09:20:52;52874.81;;;-146.77;100.00
55410;BME280;41279;43.546;16.426;2023-03-23T09:23:18;53435.50;;;-146.77;100.00
55410;BME280;41279;43.546;16.426;2023-03-23T09:25:44;53471.53;;;-146.77;100.00
55410;BME280;41279;43.546;16.426;2023-03-23T09:28:09;53599.69;;;-146.77;100.00
55410;BME280;41279;43.546;16.426;2023-03-23T09:30:36;52930.88;;;-146.77;100.00
55410;BME280;41279;43.546;16.426;2023-03-23T09:33:04;52988.94;;;-146.77;100.00
55410;BME280;41279;43.546;16.426;2023-03-23T09:35:32;52706.63;;;-146.77;100.00
55410;BME280;41279;43.546;16.426;2023-03-23T09:38:00;52714.63;;;-146.77;100.00
55410;BME280;41279;43.546;16.426;2023-03-23T09:43:11;53563.66;;;-146.77;100.00
55410;BME280;41279;43.546;16.426;2023-03-23T09:45:54;53303.31;;;-146.77;100.00
55410;BME280;41279;43.546;16.426;2023-03-23T09:56:37;55869.34;;;-146.77;100.00
55410;BME280;41279;43.546;16.426;2023-03-23T10:01:59;55670.97;;;-146.77;100.00
55410;BME280;41279;43.546;16.426;2023-03-23T10:04:44;53697.84;;;-146.77;100.00
55410;BME280;41279;43.546;16.426;2023-03-23T10:09:42;53165.16;;;-146.77;100.00
55410;BME280;41279;43.546;16.426;2023-03-23T10:15:17;52942.88;;;-146.77;100.00
55410;BME280;41279;43.546;16.426;2023-03-23T10:17:52;53099.06;;;-146.77;100.00
55410;BME280;41279;43.546;16.426;2023-03-23T10:23:51;52984.94;;;-146.77;100.00
55410;BME280;41279;43.546;16.426;2023-03-23T10:26:43;53002.97;;;-146.77;100.00
55410;BME280;41279;43.546;16.426;2023-03-23T10:29:17;52884.81;;;-146.77;100.00
55410;BME280;41279;43.546;16.426;2023-03-23T10:31:57;52858.78;;;-146.77;100.00
55410;BME280;41279;43.546;16.426;2023-03-23T10:34:40;52840.78;;;-146.77;100.00
55410;BME280;41279;43.546;16.426;2023-03-23T10:39:49;52920.88;;;-146.77;100.00
55410;BME280;41279;43.546;16.426;2023-03-23T10:42:29;52910.84;;;-146.77;100.00
55410;BME280;41279;43.546;16.426;2023-03-23T10:44:57;52802.72;;;-146.77;99.86
55410;BME280;41279;43.546;16.426;2023-03-23T10:47:24;52758.69;;;-146.77;95.08
55410;BME280;41279;43.546;16.426;2023-03-23T10:49:58;52746.66;;;-146.77;93.32
55410;BME280;41279;43.546;16.426;2023-03-23T10:52:31;52728.66;;;-146.77;87.65
55410;BME280;41279;43.546;16.426;2023-03-23T10:55:07;52854.78;;;-146.77;98.74
55410;BME280;41279;43.546;16.426;2023-03-23T10:57:35;53055.03;;;-146.77;100.00
55410;BME280;41279;43.546;16.426;2023-03-23T11:00:06;53355.38;;;-146.77;100.00
55410;BME280;41279;43.546;16.426;2023-03-23T11:02:43;53079.06;;;-146.77;100.00
55410;BME280;41279;43.546;16.426;2023-03-23T11:05:21;52948.91;;;-146.77;100.00
55410;BME280;41279;43.546;16.426;2023-03-23T11:07:54;52898.84;;;-146.77;99.77
55410;BME280;41279;43.546;16.426;2023-03-23T11:12:47;52880.81;;;-146.77;94.79
55410;BME280;41279;43.546;16.426;2023-03-23T11:15:34;52870.81;;;-146.77;89.12
55410;BME280;41279;43.546;16.426;2023-03-23T11:18:37;52834.78;;;-146.77;84.15
55410;BME280;41279;43.546;16.426;2023-03-23T11:21:05;52822.75;;;-146.77;77.04
55410;BME280;41279;43.546;16.426;2023-03-23T11:23:34;52844.78;;;-146.77;80.94
55410;BME280;41279;43.546;16.426;2023-03-23T11:26:29;52936.88;;;-146.77;90.62
55410;BME280;41279;43.546;16.426;2023-03-23T11:31:46;52870.81;;;-146.77;90.76
55410;BME280;41279;43.546;16.426;2023-03-23T11:35:00;52840.78;;;-146.77;86.58
55410;BME280;41279;43.546;16.426;2023-03-23T11:42:38;52854.78;;;-146.77;87.70
55410;BME280;41279;43.546;16.426;2023-03-23T11:45:37;52904.84;;;-146.77;86.74
55410;BME280;41279;43.546;16.426;2023-03-23T11:48:18;52870.81;;;-146.77;89.09
55410;BME280;41279;43.546;16.426;2023-03-23T11:50:57;52882.81;;;-146.77;90.42
55410;BME280;41279;43.546;16.426;2023-03-23T11:58:43;52970.94;;;-146.77;95.20
55410;BME280;41279;43.546;16.426;2023-03-23T12:01:24;53016.97;;;-146.77;95.33
55410;BME280;41279;43.546;16.426;2023-03-23T12:04:28;53345.38;;;-146.77;100.00
55410;BME280;41279;43.546;16.426;2023-03-23T12:12:41;53014.97;;;-146.77;100.00
55410;BME280;41279;43.546;16.426;2023-03-23T12:15:25;52952.91;;;-146.77;95.54
55410;BME280;41279;43.546;16.426;2023-03-23T12:28:42;52956.91;;;-146.77;92.80
55410;BME280;41279;43.546;16.426;2023-03-23T12:31:18;52918.88;;;-146.77;90.32
55410;BME280;41279;43.546;16.426;2023-03-23T12:33:59;52890.84;;;-146.77;89.45
55410;BME280;41279;43.546;16.426;2023-03-23T12:36:50;52890.84;;;-146.77;89.54
55410;BME280;41279;43.546;16.426;2023-03-23T12:42:20;52846.78;;;-146.77;87.19
55410;BME280;41279;43.546;16.426;2023-03-23T12:45:18;52842.78;;;-146.77;85.57
55410;BME280;41279;43.546;16.426;2023-03-23T12:47:56;52908.84;;;-146.77;91.07
55410;BME280;41279;43.546;16.426;2023-03-23T12:53:06;52848.78;;;-146.77;88.27
55410;BME280;41279;43.546;16.426;2023-03-23T12:58:51;53018.97;;;-146.77;95.57
55410;BME280;41279;43.546;16.426;2023-03-23T13:01:25;52922.88;;;-146.77;92.27
55410;BME280;41279;43.546;16.426;2023-03-23T13:06:38;53205.19;;;-146.77;100.00
55410;BME280;41279;43.546;16.426;2023-03-23T13:11:49;53457.53;;;-146.77;100.00
55410;BME280;41279;43.546;16.426;2023-03-23T13:14:35;53615.72;;;-146.77;100.00
55410;BME280;41279;43.546;16.426;2023-03-23T13:22:49;53277.28;;;-146.77;100.00
55410;BME280;41279;43.546;16.426;2023-03-23T13:25:48;53213.22;;;-146.77;100.00
55410;BME280;41279;43.546;16.426;2023-03-23T13:28:20;53203.19;;;-146.77;100.00
55410;BME280;41279;43.546;16.426;2023-03-23T13:33:20;53275.28;;;-146.77;100.00
55410;BME280;41279;43.546;16.426;2023-03-23T13:35:49;53313.34;;;-146.77;100.00
55410;BME280;41279;43.546;16.426;2023-03-23T13:38:21;53167.16;;;-146.77;100.00
55410;BME280;41279;43.546;16.426;2023-03-23T13:40:50;53347.38;;;-146.77;100.00
55410;BME280;41279;43.546;16.426;2023-03-23T13:43:26;53293.31;;;-146.77;100.00
55410;BME280;41279;43.546;16.426;2023-03-23T13:45:52;53303.31;;;-146.77;100.00
55410;BME280;41279;43.546;16.426;2023-03-23T13:48:23;53379.41;;;-146.77;100.00
55410;BME280;41279;43.546;16.426;2023-03-23T13:50:53;53429.47;;;-146.77;100.00
55410;BME280;41279;43.546;16.426;2023-03-23T13:53:45;53195.19;;;-146.77;100.00
55410;BME280;41279;43.546;16.426;2023-03-23T13:56:32;53155.13;;;-146.77;99.22
55410;BME280;41279;43.546;16.426;2023-03-23T13:59:13;53271.28;;;-146.77;100.00
55410;BME280;41279;43.546;16.426;2023-03-23T14:01:40;53317.34;;;-146.77;100.00
55410;BME280;41279;43.546;16.426;2023-03-23T14:04:30;53623.72;;;-146.77;100.00
55410;BME280;41279;43.546;16.426;2023-03-23T14:07:09;57270.22;;;-146.77;100.00
55410;BME280;41279;43.546;16.426;2023-03-23T14:09:41;60003.28;;;-146.77;100.00
55410;BME280;41279;43.546;16.426;2023-03-23T14:12:27;57210.09;;;-146.77;100.00
55410;BME280;41279;43.546;16.426;2023-03-23T14:14:59;61933.41;;;-146.77;100.00